createdAt,value
2019-05-30T00:01:22.861Z,55.59
2019-05-30T00:03:56.013Z,56.85
2019-05-30T00:06:28.256Z,57.71
2019-05-30T00:09:00.524Z,59.36
2019-05-30T00:11:32.949Z,60.12
2019-05-30T00:14:05.069Z,61.03
2019-05-30T00:16:36.754Z,62.07
2019-05-30T00:19:08.571Z,66.32
2019-05-30T00:21:41.256Z,65.30
2019-05-30T00:24:12.998Z,62.80
2019-05-30T00:26:44.716Z,59.90
2019-05-30T00:29:16.538Z,55.67
2019-05-30T00:31:48.257Z,55.64
2019-05-30T00:34:19.987Z,56.76
2019-05-30T00:36:51.802Z,57.38
2019-05-30T00:39:23.518Z,57.86
2019-05-30T00:41:56.019Z,59.41
2019-05-30T00:44:28.236Z,60.72
2019-05-30T00:47:00.636Z,62.03
2019-05-30T00:49:32.748Z,66.31
2019-05-30T00:52:05.123Z,64.98
2019-05-30T00:54:39.603Z,62.32
2019-05-30T00:57:11.327Z,59.37
2019-05-30T00:59:43.153Z,55.23
2019-05-30T01:02:14.883Z,55.46
2019-05-30T01:04:46.603Z,56.75
2019-05-30T01:07:18.435Z,57.70
2019-05-30T01:09:50.145Z,59.17
2019-05-30T01:12:21.941Z,60.18
2019-05-30T01:14:53.716Z,60.98
2019-05-30T01:17:25.431Z,61.30
2019-05-30T01:19:57.164Z,62.26
2019-05-30T01:22:29.752Z,67.17
2019-05-30T01:25:01.670Z,65.87
2019-05-30T01:27:33.385Z,61.82
2019-05-30T01:30:08.449Z,60.66
2019-05-30T01:32:40.282Z,58.23
2019-05-30T01:35:12.333Z,53.90
2019-05-30T01:37:44.062Z,54.17
2019-05-30T01:40:17.594Z,55.27
2019-05-30T01:42:49.213Z,56.32
2019-05-30T01:45:21.005Z,57.51
2019-05-30T01:47:52.636Z,58.93
2019-05-30T01:50:24.531Z,59.78
2019-05-30T01:52:56.167Z,60.47
2019-05-30T01:55:28.831Z,61.59
2019-05-30T01:58:01.558Z,66.70
2019-05-30T02:00:41.581Z,65.93
2019-05-30T02:03:13.107Z,62.79
2019-05-30T02:05:44.827Z,59.66
2019-05-30T02:08:16.549Z,55.60
2019-05-30T02:10:48.363Z,55.76
2019-05-30T02:13:20.093Z,56.66
2019-05-30T02:15:51.814Z,57.96
2019-05-30T02:18:23.654Z,58.91
2019-05-30T02:20:55.366Z,60.40
2019-05-30T02:23:27.089Z,61.26
2019-05-30T02:26:00.093Z,62.18
2019-05-30T02:28:31.902Z,65.02
2019-05-30T02:31:05.258Z,65.04
2019-05-30T02:33:36.935Z,61.89
2019-05-30T02:36:10.968Z,59.15
2019-05-30T02:38:42.005Z,55.25
2019-05-30T02:41:13.720Z,55.59
2019-05-30T02:43:45.547Z,56.39
2019-05-30T02:46:17.258Z,57.57
2019-05-30T02:48:58.761Z,58.67
2019-05-30T02:51:22.295Z,60.09
2019-05-30T02:53:54.009Z,61.32
2019-05-30T02:56:26.705Z,62.68
2019-05-30T02:58:58.520Z,67.27
2019-05-30T03:01:30.137Z,65.82
2019-05-30T03:04:03.878Z,62.42
2019-05-30T03:06:35.918Z,59.79
2019-05-30T03:09:10.758Z,55.93
2019-05-30T03:11:42.206Z,55.79
2019-05-30T03:14:19.000Z,56.35
2019-05-30T03:16:47.877Z,57.82
2019-05-30T03:19:19.869Z,58.54
2019-05-30T03:21:51.927Z,59.91
2019-05-30T03:24:23.752Z,61.67
2019-05-30T03:26:55.537Z,62.92
2019-05-30T03:29:27.264Z,67.28
2019-05-30T03:32:33.831Z,66.37
2019-05-30T03:34:33.245Z,63.68
2019-05-30T03:37:09.330Z,60.11
2019-05-30T03:39:38.590Z,56.76
2019-05-30T03:42:11.775Z,54.53
2019-05-30T03:44:43.950Z,54.89
2019-05-30T03:47:19.092Z,56.25
2019-05-30T03:49:52.061Z,55.72
2019-05-30T03:52:25.798Z,52.17
2019-05-30T03:54:57.495Z,48.58
2019-05-30T03:57:42.209Z,48.81
2019-05-30T04:00:38.658Z,44.58
2019-05-30T04:03:46.453Z,42.66
2019-05-30T04:06:23.584Z,41.90
2019-05-30T04:08:59.900Z,40.43
2019-05-30T04:11:41.965Z,39.21
2019-05-30T04:14:19.380Z,36.29
2019-05-30T04:16:50.957Z,36.22
2019-05-30T04:19:22.797Z,34.84
2019-05-30T04:21:54.638Z,33.70
2019-05-30T04:24:26.397Z,30.33
2019-05-30T04:26:58.141Z,29.77
2019-05-30T04:29:29.871Z,30.02
2019-05-30T04:32:02.588Z,29.10
2019-05-30T04:34:34.295Z,26.56
2019-05-30T04:37:06.028Z,24.51
2019-05-30T04:39:37.858Z,24.15
2019-05-30T04:42:11.169Z,22.83
2019-05-30T04:44:42.907Z,22.74
2019-05-30T04:47:15.999Z,22.34
2019-05-30T04:49:47.947Z,21.66
2019-05-30T04:52:23.909Z,21.99
2019-05-30T04:54:53.011Z,20.93
2019-05-30T04:57:26.875Z,19.64
2019-05-30T04:59:58.073Z,19.91
2019-05-30T05:02:29.833Z,19.18
2019-05-30T05:05:01.563Z,18.58
2019-05-30T05:07:34.231Z,17.58
2019-05-30T05:10:09.414Z,18.02
2019-05-30T05:12:41.332Z,18.87
2019-05-30T05:15:14.320Z,17.92
2019-05-30T05:17:46.231Z,16.54
2019-05-30T05:20:19.367Z,17.14
2019-05-30T05:22:51.690Z,16.42
2019-05-30T05:25:23.644Z,15.74
2019-05-30T05:27:55.683Z,15.69
2019-05-30T05:30:28.678Z,15.65
2019-05-30T05:33:00.439Z,15.88
2019-05-30T05:35:32.164Z,15.66
2019-05-30T05:38:03.907Z,15.08
2019-05-30T05:40:35.731Z,14.98
2019-05-30T05:43:07.487Z,14.27
2019-05-30T05:45:39.211Z,14.57
2019-05-30T05:48:10.949Z,14.17
2019-05-30T05:50:42.760Z,14.55
2019-05-30T05:53:14.497Z,14.21
2019-05-30T05:55:46.225Z,14.41
2019-05-30T05:58:19.109Z,14.28
2019-05-30T06:00:51.289Z,14.48
2019-05-30T06:03:24.154Z,14.27
2019-05-30T06:05:56.487Z,14.44
2019-05-30T06:08:28.997Z,14.30
2019-05-30T06:11:00.824Z,13.70
2019-05-30T06:13:32.553Z,13.71
2019-05-30T06:16:04.721Z,14.04
2019-05-30T06:18:36.347Z,13.42
2019-05-30T06:21:08.179Z,14.14
2019-05-30T06:23:39.912Z,12.76
2019-05-30T06:26:11.640Z,13.49
2019-05-30T06:28:43.378Z,13.66
2019-05-30T06:31:15.225Z,13.15
2019-05-30T06:33:46.958Z,13.38
2019-05-30T06:36:18.865Z,13.48
2019-05-30T06:38:51.013Z,13.17
2019-05-30T06:41:23.527Z,13.57
2019-05-30T06:43:55.481Z,12.67
2019-05-30T06:46:28.294Z,13.09
2019-05-30T06:49:00.533Z,13.94
2019-05-30T06:51:32.271Z,13.39
2019-05-30T06:54:04.100Z,12.43
2019-05-30T06:56:35.830Z,12.68
2019-05-30T06:59:07.596Z,12.43
2019-05-30T07:01:39.302Z,13.01
2019-05-30T07:04:11.504Z,12.81
2019-05-30T07:06:44.045Z,12.82
2019-05-30T07:09:15.852Z,12.06
2019-05-30T07:11:47.891Z,12.56
2019-05-30T07:14:21.133Z,11.77
2019-05-30T07:16:52.965Z,11.84
2019-05-30T07:19:25.345Z,12.56
2019-05-30T07:21:57.408Z,11.75
2019-05-30T07:24:29.910Z,12.44
2019-05-30T07:27:04.198Z,12.41
2019-05-30T07:29:36.027Z,12.51
2019-05-30T07:32:07.861Z,11.38
2019-05-30T07:34:39.609Z,11.45
2019-05-30T07:37:11.343Z,12.01
2019-05-30T07:39:43.081Z,12.04
2019-05-30T07:42:14.804Z,11.71
2019-05-30T07:44:46.630Z,11.13
2019-05-30T07:47:18.365Z,11.42
2019-05-30T07:49:50.091Z,10.28
2019-05-30T07:52:22.284Z,10.50
2019-05-30T07:54:53.917Z,12.78
2019-05-30T07:57:26.137Z,11.94
2019-05-30T07:59:58.367Z,11.11
2019-05-30T08:02:30.111Z,11.63
2019-05-30T08:05:01.928Z,10.84
2019-05-30T08:07:34.982Z,12.10
2019-05-30T08:10:09.965Z,12.04
2019-05-30T08:12:41.748Z,12.15
2019-05-30T08:15:14.724Z,11.92
2019-05-30T08:17:46.552Z,12.37
2019-05-30T08:20:20.228Z,12.99
2019-05-30T08:22:51.853Z,14.07
2019-05-30T08:25:23.677Z,14.45
2019-05-30T08:27:55.406Z,15.14
2019-05-30T08:30:28.316Z,15.87
2019-05-30T08:33:00.508Z,16.35
2019-05-30T08:35:46.898Z,17.47
2019-05-30T08:38:05.772Z,17.59
2019-05-30T08:40:37.817Z,18.65
2019-05-30T08:43:09.921Z,17.51
2019-05-30T08:45:41.808Z,19.38
2019-05-30T08:48:14.773Z,19.53
2019-05-30T08:50:46.408Z,21.25
2019-05-30T08:53:18.612Z,20.55
2019-05-30T08:55:50.242Z,20.17
2019-05-30T08:58:22.079Z,20.65
2019-05-30T09:00:53.812Z,22.13
2019-05-30T09:03:25.542Z,21.78
2019-05-30T09:06:03.686Z,24.31
2019-05-30T09:08:30.606Z,23.93
2019-05-30T09:11:02.334Z,24.17
2019-05-30T09:13:34.163Z,23.84
2019-05-30T09:16:06.074Z,24.28
2019-05-30T09:18:38.556Z,26.00
2019-05-30T09:21:11.535Z,25.36
2019-05-30T09:23:44.015Z,26.94
2019-05-30T09:26:15.682Z,25.20
2019-05-30T09:28:48.301Z,27.48
2019-05-30T09:31:21.363Z,26.11
2019-05-30T09:33:53.100Z,25.98
2019-05-30T09:36:24.826Z,26.57
2019-05-30T09:38:56.668Z,27.56
2019-05-30T09:41:28.391Z,26.95
2019-05-30T09:44:00.121Z,28.13
2019-05-30T09:46:31.843Z,27.05
2019-05-30T09:49:03.653Z,26.60
2019-05-30T09:51:35.468Z,32.54
2019-05-30T09:54:07.259Z,29.70
2019-05-30T09:56:38.886Z,28.21
2019-05-30T09:59:10.718Z,29.45
2019-05-30T10:01:43.167Z,30.27
2019-05-30T10:04:15.771Z,29.85
2019-05-30T10:06:48.449Z,29.83
2019-05-30T10:09:20.496Z,28.81
2019-05-30T10:11:53.400Z,31.02
2019-05-30T10:14:25.529Z,27.55
2019-05-30T10:16:58.156Z,29.67
2019-05-30T10:19:30.314Z,29.27
2019-05-30T10:22:02.079Z,29.25
2019-05-30T10:24:33.807Z,29.09
2019-05-30T10:27:05.533Z,29.71
2019-05-30T10:29:37.646Z,30.56
2019-05-30T10:32:09.368Z,30.50
2019-05-30T10:34:41.102Z,31.58
2019-05-30T10:37:12.939Z,30.07
2019-05-30T10:39:45.681Z,30.61
2019-05-30T10:42:18.228Z,30.30
2019-05-30T10:44:51.863Z,29.19
2019-05-30T10:47:23.595Z,30.92
2019-05-30T10:49:55.429Z,29.17
2019-05-30T10:52:27.150Z,29.14
2019-05-30T10:54:58.889Z,27.67
2019-05-30T10:57:30.620Z,29.04
2019-05-30T11:00:02.618Z,28.42
2019-05-30T11:02:34.527Z,29.62
2019-05-30T11:05:10.658Z,28.21
2019-05-30T11:08:06.337Z,28.31
2019-05-30T11:10:46.732Z,29.97
2019-05-30T11:13:19.001Z,29.50
2019-05-30T11:15:51.721Z,28.70
2019-05-30T11:18:23.729Z,29.26
2019-05-30T11:20:56.411Z,30.26
2019-05-30T11:23:28.181Z,28.76
2019-05-30T11:25:59.926Z,29.95
2019-05-30T11:28:31.661Z,29.95
2019-05-30T11:31:04.808Z,28.59
2019-05-30T11:33:37.090Z,27.21
2019-05-30T11:36:08.817Z,27.66
2019-05-30T11:38:40.552Z,25.66
2019-05-30T11:41:12.385Z,28.29
2019-05-30T11:43:44.191Z,30.38
2019-05-30T11:46:15.826Z,27.41
2019-05-30T11:48:47.660Z,26.64
2019-05-30T11:51:19.390Z,29.15
2019-05-30T11:53:51.822Z,29.61
2019-05-30T11:56:23.496Z,30.20
2019-05-30T11:58:55.999Z,32.09
2019-05-30T12:01:27.638Z,31.39
2019-05-30T12:04:00.687Z,30.33
2019-05-30T12:06:33.995Z,31.16
2019-05-30T12:09:08.061Z,31.39
2019-05-30T12:11:39.619Z,30.87
2019-05-30T12:14:11.345Z,32.00
2019-05-30T12:16:43.083Z,31.92
2019-05-30T12:19:14.825Z,32.30
2019-05-30T12:21:46.554Z,31.87
2019-05-30T12:24:18.578Z,32.63
2019-05-30T12:26:50.414Z,32.06
2019-05-30T12:29:22.233Z,31.63
2019-05-30T12:31:57.565Z,30.44
2019-05-30T12:34:27.304Z,31.27
2019-05-30T12:36:59.047Z,32.75
2019-05-30T12:39:32.715Z,32.74
2019-05-30T12:42:04.727Z,32.15
2019-05-30T12:44:37.989Z,32.18
2019-05-30T12:47:09.706Z,33.51
2019-05-30T12:49:42.401Z,33.56
2019-05-30T12:52:14.136Z,32.36
2019-05-30T12:54:45.977Z,31.89
2019-05-30T12:57:17.721Z,31.26
2019-05-30T12:59:49.448Z,31.73
2019-05-30T13:02:21.198Z,33.63
2019-05-30T13:04:52.925Z,33.12
2019-05-30T13:07:24.784Z,32.01
2019-05-30T13:09:57.129Z,32.57
2019-05-30T13:12:29.162Z,33.46
2019-05-30T13:15:01.912Z,33.82
2019-05-30T13:17:34.241Z,33.66
2019-05-30T13:20:10.813Z,32.72
2019-05-30T13:22:43.593Z,33.07
2019-05-30T13:25:18.383Z,34.40
2019-05-30T13:27:50.144Z,33.60
2019-05-30T13:30:22.471Z,33.92
2019-05-30T13:32:54.718Z,34.59
2019-05-30T13:35:28.237Z,31.64
2019-05-30T15:36:39.338Z,36.13
2019-05-30T15:39:11.085Z,34.25
2019-05-30T15:41:42.808Z,33.33
2019-05-30T15:44:15.715Z,35.76
2019-05-30T15:46:47.907Z,33.35
2019-05-30T15:49:20.631Z,33.63
2019-05-30T15:51:52.670Z,35.61
2019-05-30T15:54:24.411Z,34.90
2019-05-30T15:56:56.214Z,33.12
2019-05-30T15:59:27.961Z,34.12
2019-05-30T16:01:59.721Z,32.90
2019-05-30T16:04:31.448Z,34.72
2019-05-30T16:07:03.203Z,34.44
2019-05-30T16:09:46.777Z,34.91
2019-05-30T16:12:13.007Z,32.79
2019-05-30T16:14:49.729Z,32.75
2019-05-30T16:17:21.824Z,36.01
2019-05-30T16:19:53.533Z,34.29
2019-05-30T16:22:25.570Z,34.74
2019-05-30T16:24:57.504Z,34.04
2019-05-30T16:27:31.323Z,34.65
2019-05-30T16:30:03.829Z,35.32
2019-05-30T16:32:36.062Z,34.84
2019-05-30T16:35:09.050Z,34.12
2019-05-30T16:37:41.022Z,34.53
2019-05-30T16:40:14.495Z,35.58
2019-05-30T16:42:46.555Z,35.55
2019-05-30T16:45:24.631Z,34.83
2019-05-30T16:47:53.664Z,35.57
2019-05-30T16:50:27.014Z,35.73
2019-05-30T16:53:01.335Z,36.29
2019-05-30T16:55:33.134Z,35.56
2019-05-30T16:58:05.198Z,34.89
2019-05-30T17:00:36.865Z,35.60
2019-05-30T17:03:08.746Z,36.08
2019-05-30T17:05:40.605Z,36.84
2019-05-30T17:08:12.470Z,37.46
2019-05-30T17:10:44.298Z,36.93
2019-05-30T17:13:15.941Z,36.28
2019-05-30T17:15:48.481Z,37.12
2019-05-30T17:18:20.304Z,37.21
2019-05-30T17:20:52.177Z,36.75
2019-05-30T17:23:24.854Z,36.25
2019-05-30T17:25:57.030Z,36.46
2019-05-30T17:28:30.096Z,35.93
2019-05-30T17:31:02.014Z,36.76
2019-05-30T17:33:33.859Z,37.85
2019-05-30T17:36:06.125Z,37.20
2019-05-30T17:38:37.893Z,37.21
2019-05-30T17:41:09.761Z,36.78
2019-05-30T17:43:41.951Z,37.30
2019-05-30T17:46:13.790Z,38.23
2019-05-30T17:48:45.837Z,38.57
2019-05-30T17:51:19.775Z,37.98
2019-05-30T17:53:51.504Z,39.38
2019-05-30T17:56:23.968Z,38.46
2019-05-30T17:58:56.078Z,38.72
2019-05-30T18:01:30.559Z,38.96
2019-05-30T18:04:02.505Z,39.26
2019-05-30T18:06:34.299Z,40.38
2019-05-30T18:09:08.406Z,40.20
2019-05-30T18:11:39.960Z,41.15
2019-05-30T18:14:11.816Z,41.18
2019-05-30T18:16:44.449Z,41.48
2019-05-30T18:19:16.173Z,41.50
2019-05-30T18:21:47.944Z,42.19
2019-05-30T18:24:21.435Z,43.03
2019-05-30T18:26:53.252Z,43.32
2019-05-30T18:29:26.045Z,43.65
2019-05-30T18:31:59.554Z,43.54
2019-05-30T18:34:32.786Z,44.08
2019-05-30T18:37:05.293Z,44.83
2019-05-30T18:39:36.934Z,44.82
2019-05-30T18:42:08.686Z,45.68
2019-05-30T18:44:40.442Z,46.81
2019-05-30T18:47:12.179Z,47.57
2019-05-30T18:49:44.019Z,47.87
2019-05-30T18:52:17.357Z,49.44
2019-05-30T18:54:49.306Z,49.18
2019-05-30T18:57:21.054Z,49.52
2019-05-30T18:59:52.907Z,50.76
2019-05-30T19:02:25.134Z,51.13
2019-05-30T19:04:57.120Z,50.91
2019-05-30T19:07:37.194Z,50.80
2019-05-30T19:10:11.543Z,52.52
2019-05-30T19:12:43.722Z,53.58
2019-05-30T19:15:18.031Z,54.49
2019-05-30T19:17:52.459Z,54.66
2019-05-30T19:20:25.551Z,55.14
2019-05-30T19:22:57.670Z,54.79
2019-05-30T19:25:29.971Z,56.18
2019-05-30T19:28:02.155Z,55.72
2019-05-30T19:30:34.889Z,56.36
2019-05-30T19:33:08.570Z,57.95
2019-05-30T19:35:41.530Z,58.90
2019-05-30T19:38:15.215Z,59.80
2019-05-30T19:40:47.187Z,60.07
2019-05-30T19:43:18.831Z,60.83
2019-05-30T19:45:50.766Z,61.22
2019-05-30T19:48:23.664Z,61.01
2019-05-30T19:50:55.423Z,62.28
2019-05-30T19:53:28.793Z,65.41
2019-05-30T19:56:01.448Z,64.20
2019-05-30T19:58:33.500Z,61.18
2019-05-30T20:01:07.671Z,58.43
2019-05-30T20:03:45.164Z,54.85
2019-05-30T20:06:14.747Z,55.05
2019-05-30T20:08:55.514Z,55.29
2019-05-30T20:11:26.684Z,55.39
2019-05-30T20:13:58.671Z,56.21
2019-05-30T20:16:31.391Z,56.92
2019-05-30T20:19:04.871Z,57.51
2019-05-30T20:21:37.790Z,58.62
2019-05-30T20:24:10.254Z,59.01
2019-05-30T20:26:45.584Z,59.37
2019-05-30T20:29:21.167Z,61.58
2019-05-30T20:31:58.658Z,65.25
2019-05-30T20:34:31.372Z,63.13
2019-05-30T20:37:09.626Z,59.84
2019-05-30T20:39:50.133Z,56.02
2019-05-30T20:42:24.667Z,56.06
2019-05-30T20:44:56.589Z,56.71
2019-05-30T20:47:36.021Z,57.34
2019-05-30T20:50:10.318Z,58.25
2019-05-30T20:52:45.592Z,58.68
2019-05-30T20:55:18.722Z,60.22
2019-05-30T20:57:50.351Z,61.65
2019-05-30T21:00:25.501Z,61.84
2019-05-30T21:02:59.898Z,62.00
2019-05-30T21:05:31.661Z,65.37
2019-05-30T21:08:06.152Z,64.42
2019-05-30T21:10:41.526Z,61.44
2019-05-30T21:13:16.734Z,58.64
2019-05-30T21:15:50.825Z,55.43
2019-05-30T21:18:25.292Z,55.33
2019-05-30T21:20:57.694Z,55.87
2019-05-30T21:23:29.639Z,56.88
2019-05-30T21:26:01.448Z,57.92
2019-05-30T21:28:33.105Z,59.75
2019-05-30T21:31:04.828Z,60.97
2019-05-30T21:33:37.519Z,61.22
2019-05-30T21:36:09.666Z,62.13
2019-05-30T21:38:41.947Z,65.54
2019-05-30T21:41:13.933Z,63.50
2019-05-30T21:43:46.790Z,60.38
2019-05-30T21:46:19.180Z,57.07
2019-05-30T21:48:50.916Z,55.19
2019-05-30T21:51:22.651Z,55.33
2019-05-30T21:53:55.735Z,56.14
2019-05-30T21:56:27.417Z,57.37
2019-05-30T21:59:00.016Z,58.17
2019-05-30T22:01:34.769Z,59.75
2019-05-30T22:04:08.139Z,60.74
2019-05-30T22:06:40.843Z,61.55
2019-05-30T22:09:12.797Z,62.64
2019-05-30T22:11:45.577Z,65.67
2019-05-30T22:14:17.870Z,63.78
2019-05-30T22:16:50.248Z,60.91
2019-05-30T22:19:23.016Z,58.26
2019-05-30T22:21:54.820Z,55.61
2019-05-30T22:24:26.982Z,56.69
2019-05-30T22:26:58.617Z,57.27
2019-05-30T22:29:30.373Z,58.36
2019-05-30T22:32:02.788Z,59.92
2019-05-30T22:34:34.528Z,60.79
2019-05-30T22:37:06.581Z,61.47
2019-05-30T22:39:38.622Z,62.19
2019-05-30T22:42:10.379Z,65.30
2019-05-30T22:44:42.101Z,63.36
2019-05-30T22:47:13.946Z,60.71
2019-05-30T22:49:46.700Z,57.94
2019-05-30T22:52:18.794Z,55.10
2019-05-30T22:54:51.225Z,56.12
2019-05-30T22:57:23.360Z,57.18
2019-05-30T22:59:55.199Z,57.28
2019-05-30T23:02:26.932Z,57.69
2019-05-30T23:04:58.669Z,58.87
2019-05-30T23:07:30.535Z,60.20
2019-05-30T23:10:05.774Z,61.59
2019-05-30T23:12:37.603Z,62.90
2019-05-30T23:15:10.542Z,66.44
2019-05-30T23:17:42.376Z,64.35
2019-05-30T23:20:15.970Z,61.19
2019-05-30T23:22:48.837Z,58.51
2019-05-30T23:25:21.904Z,55.46
2019-05-30T23:27:53.733Z,55.93
2019-05-30T23:30:27.066Z,57.11
2019-05-30T23:32:58.773Z,58.49
2019-05-30T23:35:30.511Z,59.84
2019-05-30T23:38:02.306Z,60.39
2019-05-30T23:40:35.619Z,61.64
2019-05-30T23:43:07.581Z,62.82
2019-05-30T23:45:39.395Z,65.91
2019-05-30T23:48:11.122Z,64.03
2019-05-30T23:50:43.023Z,60.90
2019-05-30T23:53:14.651Z,58.75
2019-05-30T23:55:46.481Z,55.70
2019-05-30T23:58:18.211Z,56.16
